Hovedside
METAR-TAF:

METAR-TAF

Lufthavner :

Podor, Senegal

breddegrad: 16-39N, lengdegrad: 014-58W, høyde over havet: 6 m

Gjeldene værobservasjon

Denne rapporten ble laget for 4 timer og 15 minutter siden, klokken 00:00 UTC
Vind 2 kt fra Nord
Temperatur 25°C
Luftfuktighet 30%
Trykk 1013 hPa
Sikt 10 km eller mer
ingen skyer under 1500 m og ingen bygeskyer

METAR: GOSP 290000Z 36002KT CAVOK 25/06 Q1013

Tid: 04:15 (04:15 UTC)


TAF: fraværende

Værobservasjoner og værvarsel for over 4000 flyplasser (METAR- og TAF-rapporter).

Tilgjengelige stasjoner er representert av de røde og gule prikkene på kartet.

Hold musepekeren over prikken for å se navnet på stasjonen.

Klikk så for å se værobservasjoner og -varsler.

For å forandre kartet kan du klikke på den grønne knappen med svart kryss for å zoome inn, på den grønne knappen med strek for å zoome ut, eller på de grønne pilene for å se tilstøtende kart.


METAR-TAF: